Time;durP1;ratioP1;P1;durP2;ratioP2;P2;SDS_P1;SDS_P2;PMS_P1;PMS_P2;Temp;Humidity;BMP_temperature;BMP_pressure;BME280_temperature;BME280_humidity;BME280_pressure;Samples;Min_cycle;Max_cycle;Signal;HPM_P1;HPM_P2
2023/01/30 00:00:59;;;;;;;10.13;3.40;;;6.90;99.90;;;;;;5061589;28;20040;-65
2023/01/30 00:03:28;;;;;;;12.95;3.55;;;6.90;99.90;;;;;;5071932;28;20117;-65
2023/01/30 00:05:53;;;;;;;8.48;4.28;;;6.90;99.90;;;;;;5080621;28;20433;-65
2023/01/30 00:08:20;;;;;;;8.13;3.23;;;6.90;99.90;;;;;;5071210;28;20036;-65
2023/01/30 00:10:49;;;;;;;8.88;3.08;;;6.90;99.90;;;;;;5076051;28;20059;-65
2023/01/30 00:13:16;;;;;;;11.38;4.45;;;6.90;99.90;;;;;;5076678;28;20052;-66
2023/01/30 00:15:42;;;;;;;8.10;3.65;;;6.90;99.90;;;;;;5079265;28;20132;-68
2023/01/30 00:18:08;;;;;;;7.20;2.80;;;6.90;99.90;;;;;;5079920;28;20439;-65
2023/01/30 00:20:33;;;;;;;9.45;3.83;;;6.90;99.90;;;;;;5080401;28;20050;-65
2023/01/30 00:22:59;;;;;;;8.40;2.80;;;7.00;99.90;;;;;;5083794;28;20119;-65
2023/01/30 00:25:26;;;;;;;7.40;2.67;;;7.00;99.90;;;;;;5075080;28;20040;-65
2023/01/30 00:27:52;;;;;;;10.02;2.70;;;7.00;99.90;;;;;;5083644;28;20075;-67
2023/01/30 00:30:18;;;;;;;10.77;3.27;;;7.00;99.90;;;;;;5076711;28;20063;-65
2023/01/30 00:32:43;;;;;;;9.47;3.00;;;7.00;99.90;;;;;;5079861;28;20105;-66
2023/01/30 00:35:11;;;;;;;10.77;2.90;;;7.00;99.90;;;;;;5072915;28;20333;-66
2023/01/30 00:37:37;;;;;;;7.95;2.90;;;6.90;99.90;;;;;;5077441;28;20036;-66
2023/01/30 00:40:02;;;;;;;12.77;3.10;;;6.90;99.90;;;;;;5075459;28;20482;-65
2023/01/30 00:47:58;;;;;;;11.55;3.50;;;6.90;99.90;;;;;;5082018;28;20413;-66
2023/01/30 00:50:24;;;;;;;12.25;2.92;;;6.90;99.90;;;;;;5073281;28;20124;-66
2023/01/30 00:52:50;;;;;;;9.70;2.87;;;6.90;99.90;;;;;;5081727;28;20071;-66
2023/01/30 00:55:15;;;;;;;6.40;2.43;;;6.90;99.90;;;;;;5078965;28;20043;-66
2023/01/30 00:57:43;;;;;;;7.80;2.40;;;6.80;99.90;;;;;;5083153;28;20151;-66
2023/01/30 01:00:09;;;;;;;6.90;2.45;;;6.80;99.90;;;;;;5079206;28;20024;-66
2023/01/30 01:02:35;;;;;;;4.22;1.90;;;6.80;99.90;;;;;;5084163;28;20040;-66
2023/01/30 01:05:01;;;;;;;6.77;3.40;;;6.80;99.90;;;;;;5071334;28;20135;-66
2023/01/30 01:07:26;;;;;;;6.07;2.73;;;6.80;99.90;;;;;;5083091;28;20054;-66
2023/01/30 01:09:52;;;;;;;7.23;2.63;;;6.80;99.90;;;;;;5082484;28;20036;-66
2023/01/30 01:12:17;;;;;;;9.27;2.40;;;6.80;99.90;;;;;;5082748;28;20037;-66
2023/01/30 01:14:43;;;;;;;5.47;2.30;;;6.80;99.90;;;;;;5083350;28;20340;-66
2023/01/30 01:17:09;;;;;;;13.33;3.23;;;6.80;99.90;;;;;;5081368;28;20600;-66
2023/01/30 01:19:34;;;;;;;10.70;2.67;;;6.80;99.90;;;;;;5085284;28;20036;-66
2023/01/30 01:22:00;;;;;;;7.47;3.10;;;6.80;99.90;;;;;;5080373;28;20040;-66
2023/01/30 01:24:26;;;;;;;5.37;2.40;;;6.80;99.90;;;;;;5083431;28;20699;-66
2023/01/30 01:26:52;;;;;;;6.95;2.28;;;6.80;99.90;;;;;;5079389;28;20123;-66
2023/01/30 01:29:18;;;;;;;8.93;2.77;;;6.80;99.90;;;;;;5085769;28;20120;-66
2023/01/30 01:31:44;;;;;;;6.30;2.10;;;6.80;99.90;;;;;;5088674;22;20052;-70
2023/01/30 01:34:10;;;;;;;6.57;2.30;;;6.80;99.90;;;;;;5060683;28;20036;-70
2023/01/30 01:36:36;;;;;;;10.15;2.53;;;6.80;99.90;;;;;;5064580;28;20040;-70
2023/01/30 01:39:02;;;;;;;11.37;2.73;;;6.80;99.90;;;;;;5062144;28;20132;-70
2023/01/30 01:41:28;;;;;;;10.45;2.63;;;6.80;99.90;;;;;;5058820;28;20040;-69
2023/01/30 01:44:06;;;;;;;11.65;3.10;;;6.90;99.90;;;;;;5060400;28;20056;-70
2023/01/30 01:46:37;;;;;;;11.45;2.95;;;6.90;99.90;;;;;;5061183;28;20041;-70
2023/01/30 01:49:12;;;;;;;8.52;2.65;;;6.90;99.90;;;;;;5065174;28;20094;-69
2023/01/30 01:51:46;;;;;;;7.82;3.08;;;6.90;99.90;;;;;;5062272;28;20506;-70
2023/01/30 01:54:34;;;;;;;8.75;2.80;;;6.90;99.90;;;;;;5062659;28;20044;-70
2023/01/30 01:57:05;;;;;;;11.98;3.10;;;6.90;99.90;;;;;;5057529;28;20535;-70
2023/01/30 01:59:36;;;;;;;11.90;3.25;;;6.90;99.90;;;;;;5062845;28;20446;-70
2023/01/30 02:02:07;;;;;;;11.73;2.60;;;6.90;99.90;;;;;;5058811;28;20041;-70
2023/01/30 02:07:20;;;;;;;8.48;2.58;;;7.00;99.90;;;;;;5062375;28;20163;-70
2023/01/30 02:09:47;;;;;;;13.60;2.92;;;7.00;99.90;;;;;;5067167;28;20498;-70
2023/01/30 02:12:14;;;;;;;9.13;2.90;;;7.00;99.90;;;;;;5064754;28;20116;-70
2023/01/30 02:14:40;;;;;;;16.05;2.78;;;7.10;99.90;;;;;;5061618;28;20040;-70
2023/01/30 02:17:05;;;;;;;8.07;2.92;;;7.10;99.90;;;;;;5055185;28;20418;-70
2023/01/30 02:19:34;;;;;;;8.53;2.77;;;7.10;99.90;;;;;;5062681;28;20125;-70
2023/01/30 02:22:14;;;;;;;9.48;3.30;;;7.10;99.90;;;;;;5060228;28;20398;-70
2023/01/30 02:25:21;;;;;;;4.53;2.60;;;7.10;99.90;;;;;;5062452;28;20048;-70
2023/01/30 02:28:25;;;;;;;21.02;3.55;;;7.10;99.90;;;;;;4983565;28;20129;-70
2023/01/30 02:31:05;;;;;;;12.55;3.17;;;7.10;99.90;;;;;;5057966;28;20125;-70
2023/01/30 02:33:56;;;;;;;10.23;3.63;;;7.10;99.90;;;;;;5061315;28;20311;-70
2023/01/30 02:36:31;;;;;;;9.85;2.80;;;7.10;99.90;;;;;;5040657;28;20532;-70
2023/01/30 02:39:05;;;;;;;14.13;3.42;;;7.10;99.90;;;;;;5062257;28;20054;-70
2023/01/30 02:41:55;;;;;;;12.27;2.67;;;7.20;99.90;;;;;;5060929;28;20051;-70
2023/01/30 02:45:11;;;;;;;8.95;2.40;;;7.20;99.90;;;;;;5063106;28;20440;-70
2023/01/30 02:47:38;;;;;;;15.07;2.72;;;7.20;99.90;;;;;;5044017;28;20103;-70
2023/01/30 02:50:32;;;;;;;13.32;2.72;;;7.30;99.90;;;;;;5059459;28;20083;-70
2023/01/30 02:52:57;;;;;;;7.40;2.92;;;7.20;99.90;;;;;;5051186;28;20044;-70
2023/01/30 02:55:26;;;;;;;13.87;2.97;;;7.30;99.90;;;;;;5065992;28;20043;-70
2023/01/30 02:57:55;;;;;;;9.57;2.90;;;7.30;99.90;;;;;;5056355;28;20693;-70
2023/01/30 03:00:31;;;;;;;21.42;3.85;;;7.30;99.90;;;;;;5061686;28;20032;-70
2023/01/30 03:03:06;;;;;;;17.80;4.23;;;7.30;99.90;;;;;;5059160;28;20298;-70
2023/01/30 03:05:37;;;;;;;15.25;3.35;;;7.30;99.90;;;;;;5064197;28;20343;-70
2023/01/30 03:08:29;;;;;;;9.90;3.20;;;7.30;99.90;;;;;;5059323;28;20036;-70
2023/01/30 03:11:06;;;;;;;10.52;2.60;;;7.30;99.90;;;;;;5059985;28;20477;-70
2023/01/30 03:13:56;;;;;;;8.15;2.20;;;7.30;99.90;;;;;;5062262;28;20036;-70
2023/01/30 03:16:33;;;;;;;18.15;2.42;;;7.30;99.90;;;;;;5060384;28;20041;-75
2023/01/30 03:19:04;;;;;;;10.48;2.38;;;7.20;99.90;;;;;;5056343;28;20040;-70
2023/01/30 03:21:30;;;;;;;8.93;2.72;;;7.20;99.90;;;;;;5062117;28;20202;-70
2023/01/30 03:23:56;;;;;;;17.17;2.27;;;7.10;99.90;;;;;;5060557;28;20123;-70
2023/01/30 03:26:31;;;;;;;8.97;2.67;;;7.10;99.90;;;;;;5072366;28;20163;-70
2023/01/30 03:28:57;;;;;;;12.23;2.67;;;7.10;99.90;;;;;;5059582;28;20606;-70
2023/01/30 03:31:22;;;;;;;15.73;2.90;;;7.00;99.90;;;;;;5061309;28;20036;-70
2023/01/30 03:33:48;;;;;;;16.83;2.57;;;7.00;99.90;;;;;;5060002;28;20101;-70
2023/01/30 03:36:14;;;;;;;7.87;2.30;;;6.90;99.90;;;;;;5062941;28;20263;-70
2023/01/30 03:38:40;;;;;;;8.15;1.90;;;6.90;99.90;;;;;;5064751;28;20186;-71
2023/01/30 03:41:05;;;;;;;13.20;2.77;;;6.90;99.90;;;;;;5059366;28;20041;-70
2023/01/30 03:43:31;;;;;;;15.13;2.60;;;6.90;99.90;;;;;;5059342;28;20117;-70
2023/01/30 03:45:57;;;;;;;14.93;2.63;;;6.90;99.90;;;;;;5057102;28;20080;-70
2023/01/30 03:48:22;;;;;;;9.93;2.83;;;6.90;99.90;;;;;;5062643;28;20040;-70
2023/01/30 03:50:48;;;;;;;22.93;3.77;;;6.90;99.90;;;;;;5061560;28;20422;-70
2023/01/30 03:53:14;;;;;;;11.20;2.87;;;6.90;99.90;;;;;;5065742;28;20075;-70
2023/01/30 03:55:39;;;;;;;14.60;3.55;;;6.80;99.90;;;;;;5059631;28;20049;-70
2023/01/30 03:58:05;;;;;;;10.60;2.00;;;6.90;99.90;;;;;;5059268;28;20056;-70
2023/01/30 04:00:31;;;;;;;9.73;2.00;;;6.90;99.90;;;;;;5065835;28;20062;-70
2023/01/30 04:02:57;;;;;;;16.13;2.65;;;6.90;99.90;;;;;;5061608;28;20048;-70
2023/01/30 04:05:23;;;;;;;7.43;1.95;;;6.90;99.90;;;;;;5061591;28;20052;-70
2023/01/30 04:07:50;;;;;;;13.57;2.47;;;6.80;99.90;;;;;;5035286;28;20039;-70
2023/01/30 04:10:18;;;;;;;14.23;2.88;;;6.80;99.90;;;;;;5054133;28;20182;-70
2023/01/30 04:12:45;;;;;;;9.82;2.28;;;6.80;99.90;;;;;;5053528;28;20059;-70
2023/01/30 04:15:11;;;;;;;16.75;2.88;;;6.80;99.90;;;;;;5054463;28;20041;-70
2023/01/30 04:17:37;;;;;;;10.60;3.15;;;6.80;99.90;;;;;;5066514;28;20041;-70
2023/01/30 04:20:03;;;;;;;16.97;2.47;;;6.80;99.90;;;;;;5063226;28;20037;-70
2023/01/30 04:22:29;;;;;;;19.05;3.35;;;6.70;99.90;;;;;;5050925;28;20120;-70
2023/01/30 04:24:54;;;;;;;22.43;3.40;;;6.70;99.90;;;;;;5068117;28;20127;-70
2023/01/30 04:27:20;;;;;;;17.67;2.27;;;6.70;99.90;;;;;;5051892;28;20075;-70
2023/01/30 04:29:46;;;;;;;10.67;2.60;;;6.70;99.90;;;;;;5057709;28;20028;-70
2023/01/30 04:32:11;;;;;;;20.53;3.00;;;6.60;99.90;;;;;;5058964;28;20460;-70
2023/01/30 04:34:37;;;;;;;7.07;2.00;;;6.60;99.90;;;;;;5056344;28;20072;-70
2023/01/30 04:37:03;;;;;;;17.30;2.43;;;6.50;99.90;;;;;;5059680;28;20091;-70
2023/01/30 04:39:28;;;;;;;12.70;3.27;;;6.50;99.90;;;;;;5058025;28;20036;-70
2023/01/30 04:41:57;;;;;;;14.93;1.98;;;6.50;99.90;;;;;;5053248;28;20490;-70
2023/01/30 04:44:22;;;;;;;20.03;2.83;;;6.40;99.90;;;;;;5065048;28;20047;-70
2023/01/30 04:46:48;;;;;;;12.67;2.30;;;6.50;99.90;;;;;;5055134;28;20079;-70
2023/01/30 04:49:14;;;;;;;22.83;2.80;;;6.40;99.90;;;;;;5060767;28;20037;-70
2023/01/30 04:51:39;;;;;;;12.93;2.57;;;6.40;99.90;;;;;;5063753;28;20033;-70
2023/01/30 04:54:05;;;;;;;15.87;2.60;;;6.40;99.90;;;;;;5041208;28;20064;-70
2023/01/30 04:56:31;;;;;;;10.57;2.80;;;6.40;99.90;;;;;;5056990;28;20523;-70
2023/01/30 04:58:59;;;;;;;12.23;2.63;;;6.50;99.90;;;;;;5054653;28;20037;-70
2023/01/30 05:01:33;;;;;;;14.63;2.07;;;6.50;99.90;;;;;;5051663;28;20043;-70
2023/01/30 05:04:00;;;;;;;17.50;3.47;;;6.50;99.90;;;;;;5058315;28;20036;-70
2023/01/30 05:06:26;;;;;;;12.43;2.38;;;6.40;99.90;;;;;;5059787;28;20146;-70
2023/01/30 05:08:54;;;;;;;12.80;2.55;;;6.50;99.90;;;;;;5059887;28;20037;-70
2023/01/30 05:11:23;;;;;;;17.40;2.58;;;6.50;99.90;;;;;;5058308;28;20458;-71
2023/01/30 05:13:50;;;;;;;11.75;3.42;;;6.40;99.90;;;;;;5061804;28;20391;-70
2023/01/30 05:16:17;;;;;;;10.52;2.33;;;6.40;99.90;;;;;;5059785;28;20192;-71
2023/01/30 05:18:43;;;;;;;8.30;2.35;;;6.40;99.90;;;;;;5063493;28;20441;-70
2023/01/30 05:21:20;;;;;;;14.35;3.45;;;6.40;99.90;;;;;;5067845;28;20130;-71
2023/01/30 05:23:51;;;;;;;15.73;2.97;;;6.40;99.90;;;;;;5057067;28;20053;-70
2023/01/30 05:26:17;;;;;;;15.75;2.63;;;6.40;99.90;;;;;;5065462;28;20048;-74
2023/01/30 05:28:43;;;;;;;12.97;2.70;;;6.40;99.90;;;;;;5065199;28;20036;-75
2023/01/30 05:31:13;;;;;;;10.77;2.37;;;6.40;99.90;;;;;;5059160;28;20285;-72
2023/01/30 05:33:39;;;;;;;16.27;2.55;;;6.30;99.90;;;;;;5064977;28;20375;-70
2023/01/30 05:36:06;;;;;;;14.30;2.67;;;6.30;99.90;;;;;;5059841;28;20047;-69
2023/01/30 05:38:31;;;;;;;15.43;3.13;;;6.30;99.90;;;;;;5062608;28;20059;-74
2023/01/30 05:41:02;;;;;;;10.80;2.20;;;6.30;99.90;;;;;;5061221;28;20037;-71
2023/01/30 05:43:28;;;;;;;19.15;3.50;;;6.30;99.90;;;;;;5059269;28;20048;-71
2023/01/30 05:45:55;;;;;;;13.15;2.53;;;6.30;99.90;;;;;;5063938;28;20547;-71
2023/01/30 05:48:22;;;;;;;10.77;2.30;;;6.30;99.90;;;;;;5069190;28;20469;-71
2023/01/30 05:50:56;;;;;;;15.63;2.28;;;6.20;99.90;;;;;;5049468;28;20036;-70
2023/01/30 05:53:23;;;;;;;12.48;2.40;;;6.20;99.90;;;;;;5057898;28;20071;-71
2023/01/30 05:55:59;;;;;;;15.40;3.33;;;6.10;99.90;;;;;;5054956;28;20048;-70
2023/01/30 05:58:26;;;;;;;13.13;2.10;;;6.20;99.90;;;;;;5053947;28;20346;-74
2023/01/30 06:00:52;;;;;;;;;;;6.20;99.90;;;;;;5058454;28;20040;-73
2023/01/30 06:03:17;;;;;;;19.55;3.13;;;6.20;99.90;;;;;;5053311;28;20393;-74
2023/01/30 06:05:43;;;;;;;25.40;3.70;;;6.10;99.90;;;;;;5056903;28;20084;-71
2023/01/30 06:08:09;;;;;;;12.57;2.08;;;6.20;99.90;;;;;;5067511;28;20401;-73
2023/01/30 06:10:35;;;;;;;16.27;3.43;;;6.20;99.90;;;;;;5058019;28;20044;-73
2023/01/30 06:13:01;;;;;;;17.63;3.05;;;6.20;99.90;;;;;;5060072;28;20043;-74
2023/01/30 06:15:26;;;;;;;11.45;2.05;;;6.30;99.90;;;;;;5067179;28;20442;-75
2023/01/30 06:17:52;;;;;;;7.73;1.83;;;6.30;99.90;;;;;;5064522;28;20055;-74
2023/01/30 06:20:21;;;;;;;16.83;3.03;;;6.30;99.90;;;;;;5063464;28;20032;-75
2023/01/30 06:22:47;;;;;;;11.85;1.83;;;6.40;99.90;;;;;;5061415;28;20075;-74
2023/01/30 06:25:14;;;;;;;13.90;2.60;;;6.40;99.90;;;;;;5056978;28;20175;-71
2023/01/30 06:27:39;;;;;;;18.27;2.67;;;6.40;99.90;;;;;;5057794;28;20049;-71
2023/01/30 06:30:05;;;;;;;16.67;4.40;;;6.40;99.90;;;;;;5061010;28;20041;-71
2023/01/30 06:32:31;;;;;;;17.30;2.85;;;6.40;99.90;;;;;;5058912;28;20055;-70
2023/01/30 06:34:56;;;;;;;16.13;2.13;;;6.40;99.90;;;;;;5063567;28;20036;-71
2023/01/30 06:37:22;;;;;;;14.80;2.60;;;6.50;99.90;;;;;;5041493;28;20543;-70
2023/01/30 06:39:50;;;;;;;16.65;2.20;;;6.50;99.90;;;;;;5055810;28;20037;-71
2023/01/30 06:42:16;;;;;;;21.90;3.10;;;6.50;99.90;;;;;;5059469;28;20055;-71
2023/01/30 06:44:41;;;;;;;12.27;1.50;;;6.50;99.90;;;;;;5062482;28;20090;-70
2023/01/30 06:47:07;;;;;;;19.00;4.40;;;6.50;99.90;;;;;;5060842;28;20067;-71
2023/01/30 06:49:35;;;;;;;13.97;3.13;;;6.50;99.90;;;;;;5057940;28;20482;-71
2023/01/30 06:52:00;;;;;;;14.68;2.78;;;6.50;99.90;;;;;;5064069;28;20040;-71
2023/01/30 06:54:26;;;;;;;8.50;2.23;;;6.50;99.90;;;;;;5062462;28;20395;-71
2023/01/30 06:56:52;;;;;;;9.77;2.30;;;6.50;99.90;;;;;;5045830;28;20053;-71
2023/01/30 06:59:18;;;;;;;13.63;2.80;;;6.50;99.90;;;;;;5056477;28;20081;-71
2023/01/30 07:01:43;;;;;;;16.17;2.43;;;6.50;99.90;;;;;;5060716;28;20044;-71
2023/01/30 07:04:09;;;;;;;15.10;2.47;;;6.40;99.90;;;;;;5052937;28;20520;-71
2023/01/30 07:06:35;;;;;;;13.77;3.87;;;6.40;99.90;;;;;;5057280;28;20499;-71
2023/01/30 07:09:01;;;;;;;15.20;2.47;;;6.40;99.90;;;;;;5040174;28;20093;-71
2023/01/30 07:11:27;;;;;;;18.20;3.30;;;6.40;99.90;;;;;;5062094;28;20037;-71
2023/01/30 07:13:52;;;;;;;24.65;3.03;;;6.40;99.90;;;;;;5065119;28;20044;-71
2023/01/30 07:16:18;;;;;;;12.10;2.50;;;6.40;99.90;;;;;;5057992;28;20058;-71
2023/01/30 07:18:44;;;;;;;10.03;2.53;;;6.40;99.90;;;;;;5074614;28;20068;-71
2023/01/30 07:21:09;;;;;;;18.90;2.73;;;6.40;99.90;;;;;;5066965;28;20036;-71
2023/01/30 07:23:35;;;;;;;13.17;3.27;;;6.40;99.90;;;;;;5053613;28;20094;-71
2023/01/30 07:26:04;;;;;;;11.60;3.07;;;6.50;99.90;;;;;;5040151;28;20037;-71
2023/01/30 07:28:30;;;;;;;12.68;2.40;;;6.40;99.90;;;;;;5046187;28;20036;-71
2023/01/30 07:31:00;;;;;;;8.27;2.80;;;6.40;99.90;;;;;;5059669;28;20385;-71
2023/01/30 07:33:26;;;;;;;26.63;3.35;;;6.50;99.90;;;;;;5060051;22;20049;-66
2023/01/30 07:35:52;;;;;;;16.60;2.53;;;6.50;99.90;;;;;;5047907;28;20041;-66
2023/01/30 07:38:18;;;;;;;7.82;1.95;;;6.50;99.90;;;;;;5043418;28;20080;-66
2023/01/30 07:40:44;;;;;;;12.20;1.83;;;6.50;99.90;;;;;;5046583;28;20122;-66
2023/01/30 07:43:12;;;;;;;13.07;2.60;;;6.60;99.90;;;;;;5043006;28;20086;-65
2023/01/30 07:45:38;;;;;;;14.60;2.58;;;6.60;99.90;;;;;;5043877;28;20053;-66
2023/01/30 07:48:05;;;;;;;17.17;2.60;;;6.60;99.90;;;;;;5047216;28;20051;-66
2023/01/30 07:50:30;;;;;;;21.25;2.55;;;6.60;99.90;;;;;;5050955;28;20284;-65
2023/01/30 07:52:56;;;;;;;9.47;2.07;;;6.60;99.90;;;;;;5048548;28;20052;-66
2023/01/30 07:55:22;;;;;;;13.17;1.93;;;6.70;99.90;;;;;;5040797;28;20363;-66
2023/01/30 07:57:47;;;;;;;13.17;2.97;;;6.60;99.90;;;;;;5045304;28;20037;-66
2023/01/30 08:00:14;;;;;;;15.13;2.17;;;6.60;99.90;;;;;;5048629;28;20076;-66
2023/01/30 08:02:39;;;;;;;13.55;2.97;;;6.60;99.90;;;;;;5036194;28;20403;-66
2023/01/30 08:05:05;;;;;;;12.43;2.27;;;6.60;99.90;;;;;;5052589;28;20056;-66
2023/01/30 08:07:31;;;;;;;15.73;2.53;;;6.60;99.90;;;;;;5039225;28;20442;-66
2023/01/30 08:09:56;;;;;;;10.77;2.47;;;6.60;99.90;;;;;;5046151;28;20284;-65
2023/01/30 08:12:22;;;;;;;16.43;3.10;;;6.60;99.90;;;;;;5042785;28;20512;-66
2023/01/30 08:14:48;;;;;;;11.00;2.10;;;6.60;99.90;;;;;;5052677;28;20395;-65
2023/01/30 08:17:13;;;;;;;13.17;3.03;;;6.60;99.90;;;;;;5043746;28;20387;-66
2023/01/30 08:19:39;;;;;;;12.97;2.60;;;6.60;99.90;;;;;;5041717;28;20041;-66
2023/01/30 08:22:04;;;;;;;12.03;2.30;;;6.60;99.90;;;;;;5052235;28;20067;-65
2023/01/30 08:24:30;;;;;;;10.00;2.30;;;6.60;99.90;;;;;;5052174;28;20033;-66
2023/01/30 08:26:56;;;;;;;17.83;2.63;;;6.60;99.90;;;;;;5054067;28;20082;-66
2023/01/30 08:29:21;;;;;;;19.30;3.40;;;6.70;99.90;;;;;;5023121;28;20048;-65
2023/01/30 08:31:47;;;;;;;13.53;3.17;;;6.60;99.90;;;;;;5042491;28;20037;-66
2023/01/30 08:34:13;;;;;;;16.63;3.27;;;6.70;99.90;;;;;;5047078;28;20040;-66
2023/01/30 08:36:38;;;;;;;19.07;2.67;;;6.70;99.90;;;;;;5036224;28;20469;-67
2023/01/30 08:39:04;;;;;;;14.17;2.30;;;6.80;99.90;;;;;;5043635;28;20051;-66
2023/01/30 08:41:30;;;;;;;18.03;3.10;;;6.70;99.90;;;;;;5052851;28;20091;-66
2023/01/30 08:43:55;;;;;;;12.77;2.60;;;6.80;99.90;;;;;;5045049;28;20458;-67
2023/01/30 08:46:21;;;;;;;13.97;2.57;;;6.80;99.90;;;;;;5049302;28;20049;-66
2023/01/30 08:48:47;;;;;;;10.00;2.47;;;6.90;99.90;;;;;;5046515;28;20452;-66
2023/01/30 08:51:13;;;;;;;14.77;2.42;;;6.90;99.90;;;;;;5044930;28;20052;-66
2023/01/30 08:53:39;;;;;;;20.13;2.87;;;6.90;99.90;;;;;;5056580;28;20124;-66
2023/01/30 08:56:05;;;;;;;17.07;3.10;;;6.90;99.90;;;;;;5048658;28;20037;-65
2023/01/30 08:58:31;;;;;;;;;;;7.00;99.90;;;;;;5051026;28;20402;-65
2023/01/30 09:00:56;;;;;;;8.43;2.83;;;7.10;99.90;;;;;;5045058;28;20011;-66
2023/01/30 09:03:22;;;;;;;17.63;3.27;;;7.00;99.90;;;;;;5051200;28;20509;-66
2023/01/30 09:05:54;;;;;;;13.47;3.20;;;7.10;99.90;;;;;;5050782;28;20409;-66
2023/01/30 09:08:20;;;;;;;17.13;2.85;;;7.10;99.90;;;;;;5050779;28;20033;-66
2023/01/30 09:10:46;;;;;;;21.50;2.43;;;7.10;99.90;;;;;;5050543;28;20049;-66
2023/01/30 09:13:11;;;;;;;17.53;3.43;;;7.10;99.90;;;;;;5058892;28;20037;-66
2023/01/30 09:15:40;;;;;;;19.43;3.27;;;7.20;99.90;;;;;;5048764;28;20439;-66
2023/01/30 09:18:05;;;;;;;9.13;2.97;;;7.20;99.90;;;;;;5051884;28;20049;-67
2023/01/30 09:20:31;;;;;;;15.50;2.90;;;7.20;99.90;;;;;;5046940;28;20056;-66
2023/01/30 09:22:57;;;;;;;17.27;2.87;;;7.30;99.90;;;;;;5054335;28;20177;-65
2023/01/30 09:25:22;;;;;;;21.77;2.87;;;7.30;99.90;;;;;;5048472;28;20090;-66
2023/01/30 09:27:49;;;;;;;15.40;2.93;;;7.30;99.90;;;;;;5060056;28;20053;-66
2023/01/30 09:30:15;;;;;;;17.23;3.00;;;7.30;99.90;;;;;;5045552;28;20355;-66
2023/01/30 09:32:41;;;;;;;21.10;2.75;;;7.30;99.90;;;;;;5040649;28;20049;-66
2023/01/30 09:35:07;;;;;;;18.98;3.78;;;7.30;99.90;;;;;;5046281;28;20044;-66
2023/01/30 09:37:33;;;;;;;14.52;3.05;;;7.30;99.90;;;;;;5035331;28;20045;-65
2023/01/30 09:39:59;;;;;;;16.30;3.60;;;7.30;99.90;;;;;;5047431;28;20047;-65
2023/01/30 09:42:36;;;;;;;15.97;2.57;;;7.30;99.90;;;;;;5057290;28;20040;-66
2023/01/30 09:45:14;;;;;;;28.40;3.70;;;7.30;99.90;;;;;;5052214;28;20176;-66
2023/01/30 09:48:18;;;;;;;18.13;3.13;;;7.30;99.90;;;;;;5054057;28;20039;-67
2023/01/30 09:51:20;;;;;;;20.25;3.28;;;7.30;99.90;;;;;;5046687;28;20049;-66
2023/01/30 09:53:59;;;;;;;12.98;2.72;;;7.30;99.90;;;;;;5048627;28;20120;-66
2023/01/30 09:56:24;;;;;;;19.05;3.45;;;7.30;99.90;;;;;;5048351;28;20049;-66
2023/01/30 09:58:58;;;;;;;13.75;3.28;;;7.30;99.90;;;;;;5052924;28;20045;-67
2023/01/30 10:01:59;;;;;;;14.60;2.35;;;7.40;99.90;;;;;;5046238;28;20136;-66
2023/01/30 10:04:44;;;;;;;15.77;3.22;;;7.50;99.90;;;;;;5048239;28;20051;-67
2023/01/30 10:07:19;;;;;;;19.95;2.78;;;7.50;99.90;;;;;;5054403;28;20522;-66
2023/01/30 10:09:58;;;;;;;15.18;3.63;;;7.60;99.90;;;;;;5056532;28;20522;-67
2023/01/30 10:12:43;;;;;;;11.27;2.47;;;7.70;99.90;;;;;;5045276;28;20088;-66
2023/01/30 10:15:33;;;;;;;20.35;5.07;;;7.70;99.90;;;;;;5049828;28;20045;-66
2023/01/30 10:18:13;;;;;;;11.23;2.28;;;7.80;99.90;;;;;;5041669;28;20040;-66
2023/01/30 10:20:57;;;;;;;26.60;3.17;;;7.80;99.90;;;;;;5042029;28;20407;-66
2023/01/30 10:23:38;;;;;;;21.30;2.45;;;7.90;99.90;;;;;;5049227;28;20056;-66
2023/01/30 10:26:25;;;;;;;20.40;3.38;;;7.90;99.90;;;;;;5049517;28;20032;-66
2023/01/30 10:29:05;;;;;;;19.45;3.50;;;8.00;99.90;;;;;;5049051;28;20040;-66
2023/01/30 10:32:11;;;;;;;20.27;3.92;;;8.00;99.90;;;;;;5045567;28;20045;-67
2023/01/30 10:34:43;;;;;;;15.40;3.17;;;8.00;99.90;;;;;;5028457;28;20109;-67
2023/01/30 10:37:20;;;;;;;20.80;2.60;;;7.90;99.90;;;;;;5043198;28;20041;-66
2023/01/30 10:40:07;;;;;;;13.15;2.63;;;7.90;99.90;;;;;;5044869;28;20420;-66
2023/01/30 10:43:01;;;;;;;11.23;2.50;;;7.90;99.90;;;;;;5043944;28;20110;-66
2023/01/30 10:45:43;;;;;;;16.42;2.38;;;7.80;99.90;;;;;;5043776;28;20041;-66
2023/01/30 10:48:26;;;;;;;11.98;2.22;;;7.60;99.90;;;;;;5045682;28;20064;-66
2023/01/30 10:50:58;;;;;;;10.38;2.40;;;7.30;99.90;;;;;;5054152;28;20047;-66
2023/01/30 10:53:48;;;;;;;11.13;2.00;;;7.10;99.90;;;;;;5047049;28;20399;-66
2023/01/30 10:56:19;;;;;;;9.45;1.65;;;7.00;99.90;;;;;;5045027;28;20119;-66
2023/01/30 10:58:44;;;;;;;14.70;2.25;;;6.90;99.90;;;;;;5049620;28;20392;-66
2023/01/30 11:01:38;;;;;;;5.67;1.43;;;7.00;99.90;;;;;;5040222;28;20039;-66
2023/01/30 11:04:13;;;;;;;7.90;1.25;;;7.10;99.90;;;;;;5046470;28;20052;-66
2023/01/30 11:06:40;;;;;;;9.60;1.45;;;7.20;99.90;;;;;;5050241;28;20068;-66
2023/01/30 11:09:08;;;;;;;7.97;1.25;;;7.30;99.90;;;;;;5042750;28;20097;-66
2023/01/30 11:11:54;;;;;;;11.30;1.23;;;7.40;99.90;;;;;;5046327;28;20686;-66
2023/01/30 11:14:20;;;;;;;9.90;1.58;;;7.50;99.90;;;;;;5041852;28;20053;-66
2023/01/30 11:16:49;;;;;;;6.00;1.10;;;7.50;99.90;;;;;;5048079;28;20072;-66
2023/01/30 11:19:17;;;;;;;7.80;1.85;;;7.50;99.90;;;;;;5036556;28;20426;-66
2023/01/30 11:21:49;;;;;;;13.35;2.58;;;7.60;99.90;;;;;;5047527;28;20564;-66
2023/01/30 11:24:21;;;;;;;15.25;2.83;;;7.70;99.90;;;;;;5052593;28;20052;-67
2023/01/30 11:26:48;;;;;;;10.98;1.98;;;7.80;99.90;;;;;;5039527;28;20544;-66
2023/01/30 11:29:23;;;;;;;11.80;1.85;;;7.80;99.90;;;;;;5052422;28;20037;-66
2023/01/30 11:31:50;;;;;;;10.63;1.88;;;7.60;99.90;;;;;;5038450;28;20155;-66
2023/01/30 11:34:18;;;;;;;16.05;2.03;;;7.50;99.90;;;;;;5048778;28;20425;-66
2023/01/30 11:36:46;;;;;;;6.90;1.33;;;7.40;99.90;;;;;;5047041;28;20414;-66
2023/01/30 11:39:11;;;;;;;8.32;1.35;;;7.20;99.90;;;;;;5043649;28;20045;-66
2023/01/30 11:41:41;;;;;;;5.57;1.13;;;7.10;99.90;;;;;;5054169;28;20078;-66
2023/01/30 11:44:10;;;;;;;2.20;0.80;;;7.00;99.90;;;;;;5038148;28;20045;-66
2023/01/30 11:46:39;;;;;;;4.90;0.90;;;6.90;99.90;;;;;;5044089;28;20636;-66
2023/01/30 11:49:17;;;;;;;7.03;1.10;;;6.90;99.90;;;;;;5045168;28;20044;-66
2023/01/30 11:51:45;;;;;;;8.63;1.50;;;6.80;99.90;;;;;;5048585;28;20037;-66
2023/01/30 11:54:14;;;;;;;4.75;1.50;;;6.90;99.90;;;;;;5051822;28;20032;-66
2023/01/30 11:56:45;;;;;;;6.07;1.50;;;7.00;99.90;;;;;;5048859;28;20056;-66
2023/01/30 11:59:31;;;;;;;13.13;1.55;;;7.10;99.90;;;;;;5045248;28;20271;-65
2023/01/30 12:02:15;;;;;;;10.60;1.60;;;7.30;99.90;;;;;;5048354;28;20067;-66
2023/01/30 12:04:46;;;;;;;8.07;1.48;;;7.40;99.90;;;;;;5048748;28;20053;-67
2023/01/30 12:07:24;;;;;;;12.07;1.40;;;7.60;99.90;;;;;;5049309;28;20555;-66
2023/01/30 12:09:53;;;;;;;8.27;1.67;;;7.70;99.90;;;;;;5046289;28;20060;-66
2023/01/30 12:12:33;;;;;;;14.18;1.95;;;7.80;99.90;;;;;;5046992;28;20086;-65
2023/01/30 12:15:30;;;;;;;8.25;1.50;;;7.80;99.90;;;;;;5048858;28;20039;-66
2023/01/30 12:18:19;;;;;;;8.75;2.08;;;7.90;99.90;;;;;;5017435;28;20514;-67
2023/01/30 12:21:01;;;;;;;11.55;1.90;;;7.90;99.90;;;;;;5058823;28;20044;-66
2023/01/30 12:23:39;;;;;;;13.05;2.05;;;7.90;99.90;;;;;;5054185;28;20501;-67
2023/01/30 12:26:32;;;;;;;13.70;2.80;;;7.90;99.90;;;;;;5055233;28;20173;-66
2023/01/30 12:29:19;;;;;;;15.77;2.25;;;7.90;99.90;;;;;;5049677;28;20124;-66
2023/01/30 12:31:51;;;;;;;14.05;1.60;;;7.90;99.90;;;;;;5045406;28;20037;-66
2023/01/30 12:34:23;;;;;;;11.35;1.73;;;8.00;99.90;;;;;;5048943;28;20044;-66
2023/01/30 12:37:10;;;;;;;7.75;1.35;;;8.10;99.90;;;;;;5056723;28;20106;-66
2023/01/30 12:39:55;;;;;;;9.07;1.90;;;8.30;99.90;;;;;;5049323;28;20510;-66
2023/01/30 12:42:46;;;;;;;14.77;1.85;;;8.30;99.90;;;;;;5053907;28;20069;-66
2023/01/30 12:45:30;;;;;;;13.95;1.75;;;8.30;99.90;;;;;;5043630;28;20437;-66
2023/01/30 12:48:06;;;;;;;7.97;1.98;;;8.40;99.90;;;;;;5047619;28;20494;-66
2023/01/30 12:50:38;;;;;;;11.30;1.42;;;8.40;99.90;;;;;;5045487;28;20077;-66
2023/01/30 12:53:23;;;;;;;9.02;1.95;;;8.40;99.90;;;;;;5049401;28;20061;-66
2023/01/30 12:55:58;;;;;;;15.50;1.83;;;8.50;99.90;;;;;;5055024;28;20068;-66
2023/01/30 12:58:28;;;;;;;14.48;2.25;;;8.40;99.90;;;;;;5059563;28;20060;-66
2023/01/30 13:01:15;;;;;;;14.27;2.10;;;8.40;99.90;;;;;;5042750;28;20056;-66
2023/01/30 13:04:01;;;;;;;14.57;3.15;;;8.30;99.90;;;;;;5053978;28;20590;-66
2023/01/30 13:06:57;;;;;;;10.85;2.00;;;8.30;99.90;;;;;;5044131;28;20041;-66
2023/01/30 13:09:48;;;;;;;11.48;2.33;;;8.30;99.90;;;;;;5045773;28;20165;-66
2023/01/30 13:12:33;;;;;;;11.15;2.10;;;8.30;99.90;;;;;;5043880;28;20502;-66
2023/01/30 13:15:07;;;;;;;22.13;2.60;;;8.30;99.90;;;;;;5048694;28;20433;-66
2023/01/30 13:18:04;;;;;;;15.25;3.08;;;8.30;99.90;;;;;;5051663;28;20040;-66